»·PEaware :: N21100 KDAG-KTNP

N21100 :: KDAG-KTNP

FLIGHT INFORMATION

Flight Status: Arrived
Operator: Privately registered:
United States
More flights under this callsign
Pilot: Luke Webber (11553)
Aircraft: CESSNA 172 SKYHAWK
(C172)
More flights by this aircraft type
Origin: KDAG Barstow-Daggett
United States
Destination: KTNP Twentynine Palms
United States
More flights between these airports :: More routes between these airports
Route:
File this flight plan on PilotEdge
Remarks:
Altitude:
(Current/Filed)
7,500ft
Speed:
(Current/Filed)
115kts
Departed: 20-Apr-17 09:35 PM
Arrived: 20-Apr-17 10:49 PM
Distance/Time
Traveled:
60nm/1:14
Distance/Time
To Go:
Arrived

Flight Plot

Page will automatically refresh every two minutes.

Flight plan parsing failed; only flown route is shown


Map Options




Map Legend


Flown Route
Filed Route
Departure Airport
Arrival Airport
Navaid (VOR, NDB)
Fix

Horizontal Profiles

Position Reports

Time Latitude Longitude Heading Altitude Ground
Speed
20-Apr-17 21:34 34.861335 -116.780027 142 1909ft 0kts
20-Apr-17 21:35 34.861335 -116.780027 142 1909ft 0kts
20-Apr-17 21:36 34.855700 -116.786329 229 2243ft 52kts
20-Apr-17 21:37 34.844329 -116.770035 101 3017ft 109kts
20-Apr-17 21:38 34.841953 -116.731492 94 3777ft 117kts
20-Apr-17 21:39 34.839614 -116.693319 99 4553ft 117kts
20-Apr-17 21:40 34.836082 -116.654604 92 5313ft 113kts
20-Apr-17 21:41 34.832254 -116.615437 105 5919ft 118kts
20-Apr-17 21:42 34.823785 -116.582373 95 6796ft 105kts
20-Apr-17 21:43 34.822889 -116.545758 89 7435ft 110kts
20-Apr-17 21:44 34.822201 -116.504159 89 7501ft 127kts
20-Apr-17 21:45 34.819319 -116.461376 94 7501ft 126kts
20-Apr-17 21:46 34.816035 -116.419118 94 7501ft 126kts
20-Apr-17 21:47 34.812710 -116.376622 94 7503ft 125kts
20-Apr-17 21:48 34.809836 -116.342349 95 7505ft 125kts
20-Apr-17 21:49 34.806157 -116.300794 95 7509ft 124kts
20-Apr-17 21:50 34.801214 -116.259589 99 7511ft 124kts
20-Apr-17 21:51 34.796677 -116.219703 93 7517ft 123kts
20-Apr-17 21:53 34.794159 -116.180557 90 7523ft 123kts
20-Apr-17 21:54 34.792529 -116.139867 88 7526ft 122kts
20-Apr-17 21:55 34.791385 -116.098621 86 7528ft 122kts
20-Apr-17 21:56 34.790482 -116.057270 88 7528ft 122kts
20-Apr-17 21:57 34.789625 -116.016051 87 7525ft 122kts
20-Apr-17 21:58 34.788829 -115.975053 88 7529ft 122kts
20-Apr-17 21:59 34.788015 -115.933522 87 7506ft 124kts
20-Apr-17 22:00 34.787186 -115.891694 88 7500ft 123kts
20-Apr-17 22:01 34.786375 -115.850320 87 7491ft 122kts
20-Apr-17 22:02 34.785576 -115.809367 87 7490ft 123kts
20-Apr-17 22:03 34.784743 -115.768221 87 7490ft 123kts
20-Apr-17 22:04 34.783928 -115.727293 87 7490ft 122kts
20-Apr-17 22:05 34.783097 -115.686521 87 7492ft 122kts
20-Apr-17 22:06 34.782207 -115.644999 88 7471ft 124kts
20-Apr-17 22:07 34.781366 -115.603213 88 7442ft 123kts
20-Apr-17 22:08 34.780476 -115.561717 88 7415ft 123kts
20-Apr-17 22:09 34.779632 -115.520432 88 7385ft 122kts
20-Apr-17 22:10 34.778756 -115.479922 88 7378ft 120kts
20-Apr-17 22:11 34.777895 -115.440142 89 7349ft 120kts
20-Apr-17 22:12 34.776990 -115.400052 89 7345ft 119kts
20-Apr-17 22:13 34.776108 -115.359851 88 7345ft 119kts
20-Apr-17 22:14 34.769346 -115.325726 158 7341ft 117kts
20-Apr-17 22:15 34.743035 -115.339677 218 7343ft 108kts
20-Apr-17 22:16 34.716956 -115.357807 212 7344ft 109kts
20-Apr-17 22:17 34.689525 -115.373548 209 7364ft 109kts
20-Apr-17 22:18 34.661660 -115.387861 207 7389ft 109kts
20-Apr-17 22:19 34.633661 -115.401392 207 7417ft 109kts
20-Apr-17 22:20 34.605231 -115.414683 207 7450ft 110kts
20-Apr-17 22:21 34.577585 -115.427367 207 7611ft 103kts
20-Apr-17 22:22 34.549785 -115.440024 207 7644ft 110kts
20-Apr-17 22:23 34.520728 -115.453105 207 7645ft 112kts
20-Apr-17 22:24 34.491465 -115.466244 207 7643ft 110kts
20-Apr-17 22:25 34.463915 -115.478632 207 7645ft 107kts
20-Apr-17 22:26 34.437816 -115.490368 207 7645ft 107kts
20-Apr-17 22:27 34.410836 -115.502448 207 7645ft 107kts
20-Apr-17 22:28 34.383587 -115.514670 207 7645ft 107kts
20-Apr-17 22:29 34.356272 -115.526907 206 7645ft 107kts
20-Apr-17 22:30 34.328373 -115.538910 205 7645ft 107kts
20-Apr-17 22:31 34.300147 -115.550319 205 7645ft 107kts
20-Apr-17 22:32 34.281085 -115.574277 236 7645ft 100kts
20-Apr-17 22:33 34.262390 -115.599172 234 7645ft 101kts
20-Apr-17 22:34 34.242808 -115.623208 232 7645ft 101kts
20-Apr-17 22:35 34.223283 -115.646043 232 7569ft 94kts
20-Apr-17 22:36 34.209039 -115.662727 232 7144ft 97kts
20-Apr-17 22:37 34.192171 -115.685235 246 6576ft 91kts
20-Apr-17 22:38 34.178687 -115.712095 246 5994ft 95kts
20-Apr-17 22:39 34.170037 -115.740913 265 5405ft 90kts
20-Apr-17 22:40 34.164897 -115.770511 265 4814ft 89kts
20-Apr-17 22:41 34.159651 -115.799734 265 4224ft 88kts
20-Apr-17 22:42 34.154489 -115.826256 265 3978ft 71kts
20-Apr-17 22:43 34.149664 -115.847806 265 3980ft 63kts
20-Apr-17 22:44 34.145737 -115.871627 271 4022ft 78kts
20-Apr-17 22:45 34.142902 -115.898469 270 3709ft 77kts
20-Apr-17 22:46 34.140269 -115.921344 272 3203ft 76kts
20-Apr-17 22:47 34.133048 -115.942163 182 2804ft 88kts
20-Apr-17 22:48 34.118894 -115.924404 80 2552ft 80kts
20-Apr-17 22:49 34.132397 -115.920289 332 2192ft 48kts
20-Apr-17 22:50 34.134393 -115.936900 282 1811ft 47kts
20-Apr-17 22:51 34.134829 -115.941541 2 1814ft 0kts
20-Apr-17 22:52 34.135426 -115.944662 331 1826ft 1kts
20-Apr-17 22:53 34.135476 -115.944764 170 1826ft 0kts
20-Apr-17 22:54 34.135476 -115.944764 170 1826ft 0kts
20-Apr-17 22:55 34.135476 -115.944764 170 1826ft 0kts
20-Apr-17 22:56 34.135476 -115.944764 170 1826ft 0kts

Navigation Log

Ident Type
Flight plan parsing failed, navigation log unavailable